sensor_id;sensor_type;location;lat;lon;timestamp;pressure;altitude;pressure_sealevel;temperature;humidity
39449;BME280;25151;45.566;9.382;2023-09-19T00:01:25;99396.69;;;27.05;59.82
39449;BME280;25151;45.566;9.382;2023-09-19T00:03:55;99409.31;;;27.10;59.88
39449;BME280;25151;45.566;9.382;2023-09-19T00:06:29;99402.13;;;27.09;59.83
39449;BME280;25151;45.566;9.382;2023-09-19T00:08:58;99404.94;;;27.09;59.88
39449;BME280;25151;45.566;9.382;2023-09-19T00:11:30;99407.78;;;27.09;59.82
39449;BME280;25151;45.566;9.382;2023-09-19T00:13:57;99398.97;;;27.01;59.72
39449;BME280;25151;45.566;9.382;2023-09-19T00:16:32;99399.75;;;27.02;59.78
39449;BME280;25151;45.566;9.382;2023-09-19T00:19:07;99403.88;;;27.01;59.82
39449;BME280;25151;45.566;9.382;2023-09-19T00:21:40;99401.03;;;27.01;59.70
39449;BME280;25151;45.566;9.382;2023-09-19T00:24:16;99405.94;;;27.06;59.75
39449;BME280;25151;45.566;9.382;2023-09-19T00:26:52;99396.38;;;26.97;59.77
39449;BME280;25151;45.566;9.382;2023-09-19T00:29:24;99404.41;;;27.05;59.86
39449;BME280;25151;45.566;9.382;2023-09-19T00:32:00;99397.41;;;27.00;60.16
39449;BME280;25151;45.566;9.382;2023-09-19T00:34:30;99400.50;;;26.96;60.04
39449;BME280;25151;45.566;9.382;2023-09-19T00:37:03;99410.06;;;27.05;60.07
39449;BME280;25151;45.566;9.382;2023-09-19T00:39:38;99406.69;;;27.01;60.19
39449;BME280;25151;45.566;9.382;2023-09-19T00:42:07;99409.00;;;27.02;60.11
39449;BME280;25151;45.566;9.382;2023-09-19T00:44:40;99418.56;;;27.05;59.73
39449;BME280;25151;45.566;9.382;2023-09-19T00:47:12;99417.00;;;27.04;59.98
39449;BME280;25151;45.566;9.382;2023-09-19T00:49:47;99412.91;;;27.05;59.79
39449;BME280;25151;45.566;9.382;2023-09-19T00:52:22;99415.44;;;27.03;60.08
39449;BME280;25151;45.566;9.382;2023-09-19T00:54:52;99397.66;;;26.96;60.18
39449;BME280;25151;45.566;9.382;2023-09-19T00:57:19;99404.13;;;27.03;60.14
39449;BME280;25151;45.566;9.382;2023-09-19T00:59:51;99402.59;;;27.02;60.15
39449;BME280;25151;45.566;9.382;2023-09-19T01:02:20;99419.56;;;27.02;59.67
39449;BME280;25151;45.566;9.382;2023-09-19T01:04:52;99428.06;;;27.02;60.15
39449;BME280;25151;45.566;9.382;2023-09-19T01:07:27;99418.47;;;26.93;60.23
39449;BME280;25151;45.566;9.382;2023-09-19T01:10:01;99427.50;;;26.97;59.92
39449;BME280;25151;45.566;9.382;2023-09-19T01:29:44;99439.09;;;27.00;59.95
39449;BME280;25151;45.566;9.382;2023-09-19T01:32:16;99447.56;;;27.00;59.71
39449;BME280;25151;45.566;9.382;2023-09-19T01:34:54;99444.75;;;27.00;60.02
39449;BME280;25151;45.566;9.382;2023-09-19T01:37:32;99437.53;;;26.98;59.64
39449;BME280;25151;45.566;9.382;2023-09-19T01:40:12;99443.19;;;26.98;59.73
39449;BME280;25151;45.566;9.382;2023-09-19T01:51:14;99436.00;;;26.97;59.73
39449;BME280;25151;45.566;9.382;2023-09-19T01:54:07;99431.34;;;26.94;59.87
39449;BME280;25151;45.566;9.382;2023-09-19T01:59:41;99438.81;;;26.97;60.14
39449;BME280;25151;45.566;9.382;2023-09-19T02:02:11;99434.44;;;26.96;59.96
39449;BME280;25151;45.566;9.382;2023-09-19T02:04:39;99431.31;;;26.89;60.07
39449;BME280;25151;45.566;9.382;2023-09-19T02:07:06;99444.19;;;26.95;60.16
39449;BME280;25151;45.566;9.382;2023-09-19T02:09:39;99448.31;;;26.94;59.66
39449;BME280;25151;45.566;9.382;2023-09-19T02:12:09;99445.78;;;26.96;59.56
39449;BME280;25151;45.566;9.382;2023-09-19T02:14:39;99442.13;;;26.96;59.84
39449;BME280;25151;45.566;9.382;2023-09-19T02:17:14;99449.84;;;26.95;59.80
39449;BME280;25151;45.566;9.382;2023-09-19T02:19:42;99449.84;;;26.95;59.99
39449;BME280;25151;45.566;9.382;2023-09-19T02:22:17;99438.50;;;26.90;60.13
39449;BME280;25151;45.566;9.382;2023-09-19T02:24:56;99434.91;;;26.89;59.67
39449;BME280;25151;45.566;9.382;2023-09-19T02:27:26;99442.66;;;26.94;59.69
39449;BME280;25151;45.566;9.382;2023-09-19T02:29:53;99435.16;;;26.91;59.62
39449;BME280;25151;45.566;9.382;2023-09-19T02:32:29;99434.38;;;26.91;59.93
39449;BME280;25151;45.566;9.382;2023-09-19T02:35:01;99427.69;;;26.88;59.78
39449;BME280;25151;45.566;9.382;2023-09-19T02:37:35;99424.59;;;26.86;60.01
39449;BME280;25151;45.566;9.382;2023-09-19T02:40:05;99435.44;;;26.93;59.85
39449;BME280;25151;45.566;9.382;2023-09-19T02:42:52;99429.78;;;26.93;59.58
39449;BME280;25151;45.566;9.382;2023-09-19T02:45:24;99429.25;;;26.89;59.79
39449;BME280;25151;45.566;9.382;2023-09-19T02:47:56;99435.44;;;26.93;60.07
39449;BME280;25151;45.566;9.382;2023-09-19T02:50:29;99433.09;;;26.92;59.54
39449;BME280;25151;45.566;9.382;2023-09-19T02:53:05;99423.81;;;26.86;60.17
39449;BME280;25151;45.566;9.382;2023-09-19T02:55:32;99423.59;;;26.89;59.40
39449;BME280;25151;45.566;9.382;2023-09-19T02:58:03;99428.22;;;26.92;59.53
39449;BME280;25151;45.566;9.382;2023-09-19T03:00:39;99415.03;;;26.84;59.93
39449;BME280;25151;45.566;9.382;2023-09-19T03:03:13;99425.13;;;26.90;59.91
39449;BME280;25151;45.566;9.382;2023-09-19T03:05:43;99422.56;;;26.92;59.57
39449;BME280;25151;45.566;9.382;2023-09-19T03:08:19;99424.63;;;26.92;59.56
39449;BME280;25151;45.566;9.382;2023-09-19T03:10:49;99427.97;;;26.90;59.55
39449;BME280;25151;45.566;9.382;2023-09-19T03:13:18;99415.81;;;26.84;59.53
39449;BME280;25151;45.566;9.382;2023-09-19T03:15:46;99429.25;;;26.89;59.61
39449;BME280;25151;45.566;9.382;2023-09-19T03:18:24;99419.19;;;26.88;59.96
39449;BME280;25151;45.566;9.382;2023-09-19T03:21:01;99414.59;;;26.91;59.89
39449;BME280;25151;45.566;9.382;2023-09-19T03:23:36;99413.81;;;26.90;59.61
39449;BME280;25151;45.566;9.382;2023-09-19T03:26:07;99419.47;;;26.90;59.61
39449;BME280;25151;45.566;9.382;2023-09-19T03:28:41;99404.50;;;26.84;59.82
39449;BME280;25151;45.566;9.382;2023-09-19T03:31:14;99399.88;;;26.81;59.82
39449;BME280;25151;45.566;9.382;2023-09-19T03:33:44;99396.00;;;26.79;59.58
39449;BME280;25151;45.566;9.382;2023-09-19T03:36:16;99406.63;;;26.89;59.41
39449;BME280;25151;45.566;9.382;2023-09-19T03:38:49;99398.59;;;26.82;59.68
39449;BME280;25151;45.566;9.382;2023-09-19T03:41:21;99391.38;;;26.81;59.80
39449;BME280;25151;45.566;9.382;2023-09-19T03:43:50;99402.72;;;26.87;59.54
39449;BME280;25151;45.566;9.382;2023-09-19T03:46:17;99392.97;;;26.88;59.91
39449;BME280;25151;45.566;9.382;2023-09-19T03:48:50;99384.44;;;26.82;59.58
39449;BME280;25151;45.566;9.382;2023-09-19T03:51:17;99388.34;;;26.85;59.95
39449;BME280;25151;45.566;9.382;2023-09-19T03:53:47;99400.66;;;26.87;59.77
39449;BME280;25151;45.566;9.382;2023-09-19T03:56:17;99398.63;;;26.88;59.86
39449;BME280;25151;45.566;9.382;2023-09-19T03:58:52;99381.06;;;26.78;60.02
39449;BME280;25151;45.566;9.382;2023-09-19T04:01:21;99403.50;;;26.87;59.66
39449;BME280;25151;45.566;9.382;2023-09-19T04:03:58;99405.03;;;26.88;59.72
39449;BME280;25151;45.566;9.382;2023-09-19T04:06:36;99420.47;;;26.87;59.88
39449;BME280;25151;45.566;9.382;2023-09-19T04:09:06;99421.25;;;26.88;59.90
39449;BME280;25151;45.566;9.382;2023-09-19T04:11:43;99418.38;;;26.82;59.62
39449;BME280;25151;45.566;9.382;2023-09-19T04:14:15;99431.03;;;26.87;59.60
39449;BME280;25151;45.566;9.382;2023-09-19T04:16:50;99433.84;;;26.87;59.67
39449;BME280;25151;45.566;9.382;2023-09-19T04:19:23;99430.25;;;26.86;59.87
39449;BME280;25151;45.566;9.382;2023-09-19T04:22:01;99426.66;;;26.86;59.89
39449;BME280;25151;45.566;9.382;2023-09-19T04:24:27;99417.31;;;26.80;59.70
39449;BME280;25151;45.566;9.382;2023-09-19T04:26:58;99432.31;;;26.86;59.57
39449;BME280;25151;45.566;9.382;2023-09-19T04:29:28;99435.91;;;26.86;59.65
39449;BME280;25151;45.566;9.382;2023-09-19T04:31:57;99435.13;;;26.86;59.56
39449;BME280;25151;45.566;9.382;2023-09-19T04:34:24;99423.50;;;26.78;59.95
39449;BME280;25151;45.566;9.382;2023-09-19T04:36:54;99441.56;;;26.86;59.51
39449;BME280;25151;45.566;9.382;2023-09-19T04:39:26;99445.69;;;26.85;59.91
39449;BME280;25151;45.566;9.382;2023-09-19T04:41:57;99447.22;;;26.86;59.88
39449;BME280;25151;45.566;9.382;2023-09-19T04:44:27;99449.28;;;26.86;59.94
39449;BME280;25151;45.566;9.382;2023-09-19T04:46:54;99441.25;;;26.79;60.02
39449;BME280;25151;45.566;9.382;2023-09-19T04:49:23;99439.41;;;26.76;59.97
39449;BME280;25151;45.566;9.382;2023-09-19T04:51:56;99454.16;;;26.85;59.57
39449;BME280;25151;45.566;9.382;2023-09-19T04:54:26;99462.66;;;26.85;59.56
39449;BME280;25151;45.566;9.382;2023-09-19T04:56:58;99462.38;;;26.83;59.59
39449;BME280;25151;45.566;9.382;2023-09-19T04:59:28;99453.56;;;26.76;59.82
39449;BME280;25151;45.566;9.382;2023-09-19T05:02:00;99458.72;;;26.77;60.04
39449;BME280;25151;45.566;9.382;2023-09-19T05:04:29;99466.41;;;26.77;59.88
39449;BME280;25151;45.566;9.382;2023-09-19T05:06:59;99464.38;;;26.77;59.91
39449;BME280;25151;45.566;9.382;2023-09-19T05:09:31;99475.72;;;26.83;59.62
39449;BME280;25151;45.566;9.382;2023-09-19T05:12:02;99472.91;;;26.83;59.61
39449;BME280;25151;45.566;9.382;2023-09-19T05:14:32;99482.16;;;26.83;59.96
39449;BME280;25151;45.566;9.382;2023-09-19T05:17:01;99481.38;;;26.83;59.52
39449;BME280;25151;45.566;9.382;2023-09-19T05:19:38;99482.16;;;26.83;59.50
39449;BME280;25151;45.566;9.382;2023-09-19T05:22:11;99475.41;;;26.75;59.41
39449;BME280;25151;45.566;9.382;2023-09-19T05:24:43;99478.53;;;26.77;59.91
39449;BME280;25151;45.566;9.382;2023-09-19T05:27:14;99476.94;;;26.76;59.87
39449;BME280;25151;45.566;9.382;2023-09-19T05:29:49;99472.59;;;26.75;60.07
39449;BME280;25151;45.566;9.382;2023-09-19T05:32:18;99476.72;;;26.80;59.83
39449;BME280;25151;45.566;9.382;2023-09-19T05:34:46;99474.13;;;26.76;60.04
39449;BME280;25151;45.566;9.382;2023-09-19T05:37:36;99486.53;;;26.84;59.85
39449;BME280;25151;45.566;9.382;2023-09-19T05:40:09;99495.03;;;26.84;59.37
39449;BME280;25151;45.566;9.382;2023-09-19T05:42:42;99489.84;;;26.77;59.70
39449;BME280;25151;45.566;9.382;2023-09-19T05:45:14;99494.69;;;26.77;59.59
39449;BME280;25151;45.566;9.382;2023-09-19T05:47:51;99505.84;;;26.86;59.59
39449;BME280;25151;45.566;9.382;2023-09-19T05:50:26;99501.63;;;26.76;59.96
39449;BME280;25151;45.566;9.382;2023-09-19T05:53:02;99509.63;;;26.77;60.01
39449;BME280;25151;45.566;9.382;2023-09-19T05:55:40;99515.56;;;26.79;59.64
39449;BME280;25151;45.566;9.382;2023-09-19T05:58:07;99530.53;;;26.85;59.67
39449;BME280;25151;45.566;9.382;2023-09-19T06:00:44;99530.53;;;26.85;60.07
39449;BME280;25151;45.566;9.382;2023-09-19T06:03:16;99526.44;;;26.86;60.12
39449;BME280;25151;45.566;9.382;2023-09-19T06:05:44;99521.22;;;26.79;60.24
39449;BME280;25151;45.566;9.382;2023-09-19T06:08:15;99527.19;;;26.87;59.73
39449;BME280;25151;45.566;9.382;2023-09-19T06:10:45;99527.97;;;26.87;60.13
39449;BME280;25151;45.566;9.382;2023-09-19T06:13:15;99527.97;;;26.87;59.99
39449;BME280;25151;45.566;9.382;2023-09-19T06:15:49;99520.78;;;26.86;60.26
39449;BME280;25151;45.566;9.382;2023-09-19T06:18:16;99524.13;;;26.85;59.82
39449;BME280;25151;45.566;9.382;2023-09-19T06:20:48;99511.44;;;26.80;60.35
39449;BME280;25151;45.566;9.382;2023-09-19T06:23:24;99503.47;;;26.79;60.33
39449;BME280;25151;45.566;9.382;2023-09-19T06:25:58;99519.78;;;26.89;60.30
39449;BME280;25151;45.566;9.382;2023-09-19T06:28:32;99515.34;;;26.83;59.89
39449;BME280;25151;45.566;9.382;2023-09-19T06:31:03;99526.44;;;26.86;59.65
39449;BME280;25151;45.566;9.382;2023-09-19T06:33:41;99514.00;;;26.78;60.16
39449;BME280;25151;45.566;9.382;2023-09-19T06:38:49;99523.88;;;26.88;59.71
39449;BME280;25151;45.566;9.382;2023-09-19T06:41:22;99524.66;;;26.89;60.12
39449;BME280;25151;45.566;9.382;2023-09-19T06:43:52;99529.03;;;26.90;60.14
39449;BME280;25151;45.566;9.382;2023-09-19T06:46:24;99522.88;;;26.91;60.17
39449;BME280;25151;45.566;9.382;2023-09-19T06:49:03;99520.22;;;26.82;59.89
39449;BME280;25151;45.566;9.382;2023-09-19T06:51:34;99538.28;;;26.90;60.17
39449;BME280;25151;45.566;9.382;2023-09-19T06:54:11;99536.41;;;26.82;59.66
39449;BME280;25151;45.566;9.382;2023-09-19T06:56:36;99546.78;;;26.90;60.28
39449;BME280;25151;45.566;9.382;2023-09-19T06:59:07;99535.91;;;26.83;59.78
39449;BME280;25151;45.566;9.382;2023-09-19T07:01:38;99551.94;;;26.92;60.18
39449;BME280;25151;45.566;9.382;2023-09-19T07:04:13;99551.16;;;26.91;59.82
39449;BME280;25151;45.566;9.382;2023-09-19T07:06:46;99559.66;;;26.91;60.16
39449;BME280;25151;45.566;9.382;2023-09-19T07:09:18;99561.19;;;26.92;60.25
39449;BME280;25151;45.566;9.382;2023-09-19T07:11:50;99555.50;;;26.87;60.19
39449;BME280;25151;45.566;9.382;2023-09-19T07:14:17;99570.47;;;26.93;59.89
39449;BME280;25151;45.566;9.382;2023-09-19T07:16:46;99554.72;;;26.86;59.75
39449;BME280;25151;45.566;9.382;2023-09-19T07:19:19;99555.50;;;26.87;60.24
39449;BME280;25151;45.566;9.382;2023-09-19T07:21:51;99568.44;;;26.93;60.14
39449;BME280;25151;45.566;9.382;2023-09-19T07:24:22;99577.69;;;26.94;60.29
39449;BME280;25151;45.566;9.382;2023-09-19T07:26:52;99576.41;;;26.95;60.16
39449;BME280;25151;45.566;9.382;2023-09-19T07:29:24;99573.56;;;26.95;60.13
39449;BME280;25151;45.566;9.382;2023-09-19T07:31:54;99557.81;;;26.88;59.84
39449;BME280;25151;45.566;9.382;2023-09-19T07:34:32;99574.34;;;26.95;59.98
39449;BME280;25151;45.566;9.382;2023-09-19T07:37:01;99574.34;;;26.95;59.66
39449;BME280;25151;45.566;9.382;2023-09-19T07:39:30;99577.94;;;26.96;60.25
39449;BME280;25151;45.566;9.382;2023-09-19T07:42:04;99575.91;;;26.96;60.01
39449;BME280;25151;45.566;9.382;2023-09-19T07:44:35;99563.47;;;26.88;59.82
39449;BME280;25151;45.566;9.382;2023-09-19T07:47:10;99567.88;;;26.89;60.12
39449;BME280;25151;45.566;9.382;2023-09-19T07:49:42;99576.13;;;26.93;60.15
39449;BME280;25151;45.566;9.382;2023-09-19T07:52:10;99583.13;;;26.97;60.19
39449;BME280;25151;45.566;9.382;2023-09-19T07:54:40;99570.69;;;26.89;60.06
39449;BME280;25151;45.566;9.382;2023-09-19T07:57:07;99585.94;;;26.97;59.65
39449;BME280;25151;45.566;9.382;2023-09-19T07:59:41;99574.56;;;26.92;60.03
39449;BME280;25151;45.566;9.382;2023-09-19T08:02:12;99591.88;;;27.00;59.72
39449;BME280;25151;45.566;9.382;2023-09-19T08:04:47;99576.63;;;26.91;59.72
39449;BME280;25151;45.566;9.382;2023-09-19T08:07:18;99582.56;;;26.93;59.92
39449;BME280;25151;45.566;9.382;2023-09-19T08:09:45;99591.09;;;26.99;60.00
39449;BME280;25151;45.566;9.382;2023-09-19T08:12:19;99576.91;;;26.93;59.89
39449;BME280;25151;45.566;9.382;2023-09-19T08:14:49;99571.25;;;26.93;59.49
39449;BME280;25151;45.566;9.382;2023-09-19T08:17:18;99595.00;;;27.02;59.66
39449;BME280;25151;45.566;9.382;2023-09-19T08:19:54;99584.13;;;26.94;59.58
39449;BME280;25151;45.566;9.382;2023-09-19T08:22:24;99585.66;;;26.95;59.49
39449;BME280;25151;45.566;9.382;2023-09-19T08:24:53;99588.50;;;26.95;59.88
39449;BME280;25151;45.566;9.382;2023-09-19T08:27:22;99603.25;;;27.05;59.48
39449;BME280;25151;45.566;9.382;2023-09-19T08:29:53;99600.44;;;27.05;59.50
39449;BME280;25151;45.566;9.382;2023-09-19T08:35:24;99609.69;;;27.06;59.57
39449;BME280;25151;45.566;9.382;2023-09-19T08:37:54;99596.22;;;26.95;59.36
39449;BME280;25151;45.566;9.382;2023-09-19T08:40:29;99587.25;;;26.96;59.51
39449;BME280;25151;45.566;9.382;2023-09-19T08:42:59;99593.44;;;27.01;59.39
39449;BME280;25151;45.566;9.382;2023-09-19T08:45:29;99590.31;;;26.98;59.68
39449;BME280;25151;45.566;9.382;2023-09-19T08:50:52;99605.31;;;27.05;59.27
39449;BME280;25151;45.566;9.382;2023-09-19T08:56:17;99607.41;;;27.10;59.60
39449;BME280;25151;45.566;9.382;2023-09-19T08:58:55;99614.66;;;27.11;59.38
39449;BME280;25151;45.566;9.382;2023-09-19T09:01:29;99599.66;;;27.05;59.50
39449;BME280;25151;45.566;9.382;2023-09-19T09:03:58;99610.53;;;27.12;59.56
39449;BME280;25151;45.566;9.382;2023-09-19T09:06:25;99606.09;;;27.05;59.24
39449;BME280;25151;45.566;9.382;2023-09-19T09:08:53;99609.00;;;27.11;59.32
39449;BME280;25151;45.566;9.382;2023-09-19T09:11:21;99609.53;;;27.15;59.60
39449;BME280;25151;45.566;9.382;2023-09-19T09:13:51;99599.91;;;27.07;59.13
39449;BME280;25151;45.566;9.382;2023-09-19T09:16:18;99599.22;;;27.12;59.39
39449;BME280;25151;45.566;9.382;2023-09-19T09:18:48;99600.22;;;27.09;59.42
39449;BME280;25151;45.566;9.382;2023-09-19T09:21:26;99594.56;;;27.09;59.47
39449;BME280;25151;45.566;9.382;2023-09-19T09:23:55;99604.19;;;27.17;59.14
39449;BME280;25151;45.566;9.382;2023-09-19T09:26:40;99607.00;;;27.17;59.22
39449;BME280;25151;45.566;9.382;2023-09-19T09:29:08;99594.06;;;27.10;59.16
39449;BME280;25151;45.566;9.382;2023-09-19T09:31:39;99598.16;;;27.09;59.59
39449;BME280;25151;45.566;9.382;2023-09-19T09:34:07;99595.13;;;27.13;59.24
39449;BME280;25151;45.566;9.382;2023-09-19T09:36:36;99608.56;;;27.18;59.11
39449;BME280;25151;45.566;9.382;2023-09-19T09:39:04;99585.59;;;27.10;59.09
39449;BME280;25151;45.566;9.382;2023-09-19T09:41:55;99601.13;;;27.20;59.53
39449;BME280;25151;45.566;9.382;2023-09-19T09:44:27;99578.16;;;27.13;59.53
39449;BME280;25151;45.566;9.382;2023-09-19T09:47:03;99581.25;;;27.15;59.22
39449;BME280;25151;45.566;9.382;2023-09-19T09:50:03;99584.00;;;27.09;59.30
39449;BME280;25151;45.566;9.382;2023-09-19T09:52:49;99590.28;;;27.19;59.02
39449;BME280;25151;45.566;9.382;2023-09-19T09:55:21;99582.00;;;27.15;59.11
39449;BME280;25151;45.566;9.382;2023-09-19T09:58:16;99584.38;;;27.17;59.21
39449;BME280;25151;45.566;9.382;2023-09-19T10:00:59;99580.25;;;27.18;59.47
39449;BME280;25151;45.566;9.382;2023-09-19T10:03:41;99584.84;;;27.15;59.20
39449;BME280;25151;45.566;9.382;2023-09-19T10:06:15;99591.91;;;27.26;59.57
39449;BME280;25151;45.566;9.382;2023-09-19T10:09:05;99583.84;;;27.18;59.25
39449;BME280;25151;45.566;9.382;2023-09-19T10:11:46;99580.25;;;27.18;59.11
39449;BME280;25151;45.566;9.382;2023-09-19T10:14:20;99593.44;;;27.27;59.42
39449;BME280;25151;45.566;9.382;2023-09-19T10:16:54;99580.25;;;27.18;59.56
39449;BME280;25151;45.566;9.382;2023-09-19T10:19:33;99584.69;;;27.25;59.59
39449;BME280;25151;45.566;9.382;2023-09-19T10:22:02;99589.31;;;27.28;59.39
39449;BME280;25151;45.566;9.382;2023-09-19T10:24:33;99580.25;;;27.18;59.47
39449;BME280;25151;45.566;9.382;2023-09-19T10:27:05;99584.13;;;27.20;59.54
39449;BME280;25151;45.566;9.382;2023-09-19T10:29:39;99583.88;;;27.24;59.65
39449;BME280;25151;45.566;9.382;2023-09-19T10:32:09;99583.41;;;27.26;59.40
39449;BME280;25151;45.566;9.382;2023-09-19T10:34:47;99581.34;;;27.26;59.52
39449;BME280;25151;45.566;9.382;2023-09-19T10:37:17;99582.88;;;27.27;59.35
39449;BME280;25151;45.566;9.382;2023-09-19T10:39:48;99576.41;;;27.21;59.55
39449;BME280;25151;45.566;9.382;2023-09-19T10:42:23;99578.81;;;27.28;59.48
39449;BME280;25151;45.566;9.382;2023-09-19T10:44:58;99583.88;;;27.24;59.20
39449;BME280;25151;45.566;9.382;2023-09-19T10:47:26;99589.88;;;27.32;59.70
39449;BME280;25151;45.566;9.382;2023-09-19T10:49:53;99585.00;;;27.32;59.75
39449;BME280;25151;45.566;9.382;2023-09-19T10:52:23;99577.78;;;27.31;59.38
39449;BME280;25151;45.566;9.382;2023-09-19T10:54:55;99574.69;;;27.29;59.24
39449;BME280;25151;45.566;9.382;2023-09-19T10:57:28;99586.56;;;27.33;59.53
39449;BME280;25151;45.566;9.382;2023-09-19T11:00:08;99586.56;;;27.33;59.60
39449;BME280;25151;45.566;9.382;2023-09-19T11:06:04;99564.34;;;27.26;59.27
39449;BME280;25151;45.566;9.382;2023-09-19T11:08:59;99581.16;;;27.35;59.31
39449;BME280;25151;45.566;9.382;2023-09-19T11:30:43;99537.91;;;27.35;59.33
39449;BME280;25151;45.566;9.382;2023-09-19T11:33:28;99564.00;;;27.44;59.84
39449;BME280;25151;45.566;9.382;2023-09-19T11:36:18;99543.56;;;27.35;59.87
39449;BME280;25151;45.566;9.382;2023-09-19T11:39:02;99558.34;;;27.44;59.89
39449;BME280;25151;45.566;9.382;2023-09-19T11:41:39;99546.69;;;27.37;59.55
39449;BME280;25151;45.566;9.382;2023-09-19T11:46:53;99545.97;;;27.48;59.61
39449;BME280;25151;45.566;9.382;2023-09-19T11:49:30;99545.13;;;27.36;58.89
39449;BME280;25151;45.566;9.382;2023-09-19T11:52:00;99541.50;;;27.04;58.45
39449;BME280;25151;45.566;9.382;2023-09-19T11:54:29;99533.41;;;26.91;57.74
39449;BME280;25151;45.566;9.382;2023-09-19T11:56:59;99539.28;;;26.87;57.63
39449;BME280;25151;45.566;9.382;2023-09-19T11:59:37;99547.50;;;26.85;56.89
39449;BME280;25151;45.566;9.382;2023-09-19T12:02:14;99549.84;;;26.87;56.90
39449;BME280;25151;45.566;9.382;2023-09-19T12:04:47;99526.63;;;26.77;56.37
39449;BME280;25151;45.566;9.382;2023-09-19T12:07:20;99543.41;;;26.86;56.12
39449;BME280;25151;45.566;9.382;2023-09-19T12:10:04;99535.44;;;26.85;55.93
39449;BME280;25151;45.566;9.382;2023-09-19T12:12:32;99521.94;;;26.74;55.84
39449;BME280;25151;45.566;9.382;2023-09-19T12:15:03;99540.28;;;26.84;55.37
39449;BME280;25151;45.566;9.382;2023-09-19T12:17:41;99528.16;;;26.78;55.09
39449;BME280;25151;45.566;9.382;2023-09-19T12:20:10;99524.34;;;26.81;54.48
39449;BME280;25151;45.566;9.382;2023-09-19T12:22:46;99527.66;;;26.80;54.61
39449;BME280;25151;45.566;9.382;2023-09-19T12:25:19;99502.88;;;26.69;54.31
39449;BME280;25151;45.566;9.382;2023-09-19T12:27:51;99522.00;;;26.80;53.93
39449;BME280;25151;45.566;9.382;2023-09-19T12:30:35;99506.25;;;26.73;54.00
39449;BME280;25151;45.566;9.382;2023-09-19T12:33:02;99515.75;;;26.70;53.52
39449;BME280;25151;45.566;9.382;2023-09-19T12:35:35;99506.97;;;26.68;53.82
39449;BME280;25151;45.566;9.382;2023-09-19T12:38:05;99497.44;;;26.65;53.39
39449;BME280;25151;45.566;9.382;2023-09-19T12:40:34;99498.69;;;26.64;52.75
39449;BME280;25151;45.566;9.382;2023-09-19T12:43:03;99498.91;;;26.61;52.94
39449;BME280;25151;45.566;9.382;2023-09-19T12:45:35;99515.75;;;26.70;52.92
39449;BME280;25151;45.566;9.382;2023-09-19T12:48:37;99511.91;;;26.73;52.41
39449;BME280;25151;45.566;9.382;2023-09-19T12:51:11;99509.72;;;26.88;52.47
39449;BME280;25151;45.566;9.382;2023-09-19T12:53:56;99491.25;;;26.93;52.05
39449;BME280;25151;45.566;9.382;2023-09-19T12:56:29;99481.75;;;26.96;52.29
39449;BME280;25151;45.566;9.382;2023-09-19T12:59:06;99480.25;;;27.01;52.65
39449;BME280;25151;45.566;9.382;2023-09-19T13:01:39;99479.53;;;27.06;52.86
39449;BME280;25151;45.566;9.382;2023-09-19T13:04:20;99482.91;;;27.10;52.50
39449;BME280;25151;45.566;9.382;2023-09-19T13:06:55;99483.19;;;27.12;53.09
39449;BME280;25151;45.566;9.382;2023-09-19T13:09:32;99500.00;;;27.21;52.64
39449;BME280;25151;45.566;9.382;2023-09-19T13:12:33;99478.59;;;27.14;53.10
39449;BME280;25151;45.566;9.382;2023-09-19T13:15:10;99478.06;;;27.16;53.45
39449;BME280;25151;45.566;9.382;2023-09-19T13:17:46;99477.81;;;27.14;53.17
39449;BME280;25151;45.566;9.382;2023-09-19T13:20:23;99485.88;;;27.27;53.35
39449;BME280;25151;45.566;9.382;2023-09-19T13:22:54;99480.97;;;27.27;53.64
39449;BME280;25151;45.566;9.382;2023-09-19T13:25:26;99476.06;;;27.22;53.89
39449;BME280;25151;45.566;9.382;2023-09-19T13:27:58;99463.19;;;27.21;53.79
39449;BME280;25151;45.566;9.382;2023-09-19T13:30:27;99477.59;;;27.23;53.59
39449;BME280;25151;45.566;9.382;2023-09-19T13:33:10;99482.28;;;27.32;53.74
39449;BME280;25151;45.566;9.382;2023-09-19T13:35:38;99474.28;;;27.25;53.98
39449;BME280;25151;45.566;9.382;2023-09-19T13:38:06;99473.00;;;27.26;54.24
39449;BME280;25151;45.566;9.382;2023-09-19T13:40:39;99478.16;;;27.27;54.04
39449;BME280;25151;45.566;9.382;2023-09-19T13:43:09;99476.91;;;27.34;54.56
39449;BME280;25151;45.566;9.382;2023-09-19T13:45:42;99464.00;;;27.27;54.64
39449;BME280;25151;45.566;9.382;2023-09-19T13:48:14;99464.78;;;27.28;54.30
39449;BME280;25151;45.566;9.382;2023-09-19T13:50:44;99455.78;;;27.29;54.84
39449;BME280;25151;45.566;9.382;2023-09-19T13:53:13;99455.78;;;27.29;55.03
39449;BME280;25151;45.566;9.382;2023-09-19T13:55:40;99440.34;;;27.30;55.13
39449;BME280;25151;45.566;9.382;2023-09-19T13:58:11;99455.59;;;27.38;54.89
39449;BME280;25151;45.566;9.382;2023-09-19T14:00:38;99446.28;;;27.32;55.46
39449;BME280;25151;45.566;9.382;2023-09-19T14:03:05;99459.97;;;27.39;54.85
39449;BME280;25151;45.566;9.382;2023-09-19T14:05:35;99443.47;;;27.32;55.03
39449;BME280;25151;45.566;9.382;2023-09-19T14:08:05;99449.13;;;27.32;55.54
39449;BME280;25151;45.566;9.382;2023-09-19T14:10:37;99439.06;;;27.31;55.53
39449;BME280;25151;45.566;9.382;2023-09-19T14:13:04;99440.34;;;27.30;55.86
39449;BME280;25151;45.566;9.382;2023-09-19T14:15:30;99434.66;;;27.25;55.78
39449;BME280;25151;45.566;9.382;2023-09-19T14:17:58;99440.34;;;27.30;56.10
39449;BME280;25151;45.566;9.382;2023-09-19T14:20:28;99454.28;;;27.39;55.51
39449;BME280;25151;45.566;9.382;2023-09-19T14:22:57;99450.69;;;27.39;55.81
39449;BME280;25151;45.566;9.382;2023-09-19T14:25:31;99459.19;;;27.39;56.12
39449;BME280;25151;45.566;9.382;2023-09-19T14:27:59;99437.81;;;27.32;56.17
39449;BME280;25151;45.566;9.382;2023-09-19T14:30:28;99448.63;;;27.39;56.23
39449;BME280;25151;45.566;9.382;2023-09-19T14:32:57;99455.06;;;27.40;56.15
39449;BME280;25151;45.566;9.382;2023-09-19T14:35:24;99436.22;;;27.31;56.31